createdAt,value
2023-10-31T00:02:16.485Z,13.05
2023-10-31T00:04:48.232Z,13.13
2023-10-31T00:07:20.002Z,13.11
2023-10-31T00:09:51.784Z,12.97
2023-10-31T00:12:23.388Z,12.98
2023-10-31T00:14:55.395Z,13.01
2023-10-31T00:17:27.039Z,13.09
2023-10-31T00:19:58.644Z,13.17
2023-10-31T00:22:30.291Z,13.17
2023-10-31T00:25:01.947Z,13.00
2023-10-31T00:27:33.872Z,13.06
2023-10-31T00:30:06.718Z,13.12
2023-10-31T00:32:38.405Z,13.15
2023-10-31T00:35:13.751Z,13.05
2023-10-31T00:37:45.524Z,13.09
2023-10-31T00:40:18.822Z,13.09
2023-10-31T00:42:50.498Z,12.98
2023-10-31T00:45:22.262Z,13.03
2023-10-31T00:47:54.025Z,13.12
2023-10-31T00:50:25.840Z,13.13
2023-10-31T00:52:57.444Z,13.16
2023-10-31T00:55:29.372Z,13.18
2023-10-31T00:58:01.372Z,13.13
2023-10-31T01:00:35.257Z,13.16
2023-10-31T01:03:07.045Z,13.19
2023-10-31T01:05:38.966Z,13.32
2023-10-31T01:08:10.773Z,13.40
2023-10-31T01:10:42.674Z,13.32
2023-10-31T01:13:14.574Z,13.56
2023-10-31T01:15:46.870Z,13.66
2023-10-31T01:18:18.627Z,13.79
2023-10-31T01:20:50.160Z,13.78
2023-10-31T01:23:21.685Z,13.68
2023-10-31T01:25:53.487Z,13.57
2023-10-31T01:28:25.119Z,13.50
2023-10-31T01:30:56.905Z,13.51
2023-10-31T01:33:28.900Z,13.54
2023-10-31T01:36:01.159Z,13.73
2023-10-31T01:38:33.233Z,13.80
2023-10-31T01:41:05.467Z,13.61
2023-10-31T01:43:38.863Z,13.53
2023-10-31T01:46:11.434Z,13.44
2023-10-31T01:48:44.426Z,13.34
2023-10-31T01:51:17.452Z,13.20
2023-10-31T01:53:49.562Z,13.23
2023-10-31T01:56:22.529Z,13.41
2023-10-31T01:58:55.201Z,13.54
2023-10-31T02:01:27.471Z,13.41
2023-10-31T02:03:59.769Z,13.34
2023-10-31T02:06:32.103Z,13.27
2023-10-31T02:09:04.154Z,13.27
2023-10-31T02:11:35.896Z,13.42
2023-10-31T02:14:07.985Z,13.36
2023-10-31T02:16:40.006Z,13.44
2023-10-31T02:19:12.665Z,13.28
2023-10-31T02:21:44.207Z,13.21
2023-10-31T02:24:15.778Z,13.14
2023-10-31T02:26:47.590Z,13.03
2023-10-31T02:29:19.362Z,12.91
2023-10-31T02:31:51.512Z,12.77
2023-10-31T02:34:23.252Z,12.70
2023-10-31T02:36:55.307Z,12.63
2023-10-31T02:39:26.906Z,12.79
2023-10-31T02:41:59.103Z,12.87
2023-10-31T02:44:30.630Z,12.85
2023-10-31T02:47:02.183Z,12.90
2023-10-31T02:49:33.782Z,12.85
2023-10-31T02:52:05.801Z,12.92
2023-10-31T02:54:37.659Z,12.80
2023-10-31T02:57:09.966Z,12.69
2023-10-31T02:59:41.900Z,12.70
2023-10-31T03:02:14.056Z,12.75
2023-10-31T03:04:45.949Z,12.79
2023-10-31T03:07:17.735Z,12.83
2023-10-31T03:09:49.431Z,12.78
2023-10-31T03:12:21.076Z,12.85
2023-10-31T03:14:52.737Z,12.88
2023-10-31T03:17:26.837Z,12.86
2023-10-31T03:19:58.658Z,12.82
2023-10-31T03:22:30.450Z,12.78
2023-10-31T03:25:02.374Z,12.78
2023-10-31T03:27:34.396Z,12.77
2023-10-31T03:30:07.659Z,12.72
2023-10-31T03:32:39.262Z,12.64
2023-10-31T03:35:11.965Z,12.66
2023-10-31T03:37:44.387Z,12.58
2023-10-31T03:40:17.106Z,12.59
2023-10-31T03:42:48.690Z,12.61
2023-10-31T03:45:20.365Z,12.55
2023-10-31T03:47:52.122Z,12.53
2023-10-31T03:50:23.712Z,12.43
2023-10-31T03:52:55.292Z,12.40
2023-10-31T03:55:27.421Z,12.46
2023-10-31T03:57:59.096Z,12.40
2023-10-31T04:00:30.723Z,12.16
2023-10-31T04:03:02.433Z,12.10
2023-10-31T04:05:34.276Z,12.04
2023-10-31T04:08:05.852Z,11.90
2023-10-31T04:10:37.751Z,12.08
2023-10-31T04:13:09.720Z,12.11
2023-10-31T04:15:41.252Z,12.15
2023-10-31T04:18:12.876Z,12.21
2023-10-31T04:20:45.300Z,12.09
2023-10-31T04:23:17.078Z,11.88
2023-10-31T04:25:48.731Z,11.73
2023-10-31T04:28:20.707Z,11.52
2023-10-31T04:30:52.682Z,11.41
2023-10-31T04:33:24.348Z,11.50
2023-10-31T04:35:56.032Z,11.50
2023-10-31T04:38:28.475Z,11.48
2023-10-31T04:41:00.446Z,11.46
2023-10-31T04:43:32.376Z,11.44
2023-10-31T04:46:04.286Z,11.48
2023-10-31T04:48:36.006Z,11.40
2023-10-31T04:51:08.457Z,11.37
2023-10-31T04:53:40.279Z,11.35
2023-10-31T04:56:17.609Z,11.31
2023-10-31T04:58:49.504Z,11.22
2023-10-31T05:01:21.436Z,11.45
2023-10-31T05:04:02.649Z,11.60
2023-10-31T05:06:39.352Z,11.59
2023-10-31T05:09:12.101Z,11.47
2023-10-31T05:11:44.622Z,11.42
2023-10-31T05:14:16.486Z,11.36
2023-10-31T05:16:48.385Z,11.27
2023-10-31T05:19:20.909Z,11.23
2023-10-31T05:21:52.785Z,11.49
2023-10-31T05:24:24.857Z,11.73
2023-10-31T05:26:57.629Z,11.79
2023-10-31T05:29:31.437Z,11.71
2023-10-31T05:32:03.902Z,11.63
2023-10-31T05:34:35.648Z,11.65
2023-10-31T05:37:08.100Z,11.62
2023-10-31T05:39:40.088Z,11.50
2023-10-31T05:42:12.463Z,11.45
2023-10-31T05:44:44.320Z,11.41
2023-10-31T05:47:16.240Z,11.41
2023-10-31T05:49:48.723Z,11.26
2023-10-31T05:52:20.518Z,11.22
2023-10-31T05:54:52.432Z,11.23
2023-10-31T05:57:24.150Z,11.47
2023-10-31T05:59:56.673Z,11.39
2023-10-31T06:02:28.442Z,11.27
2023-10-31T06:05:01.277Z,11.34
2023-10-31T06:07:33.614Z,11.38
2023-10-31T06:10:06.102Z,11.25
2023-10-31T06:12:38.039Z,11.09
2023-10-31T06:15:11.689Z,11.05
2023-10-31T06:17:43.545Z,10.97
2023-10-31T06:20:16.273Z,10.90
2023-10-31T06:22:48.152Z,11.00
2023-10-31T06:25:20.033Z,10.98
2023-10-31T06:27:51.513Z,10.96
2023-10-31T06:30:29.097Z,10.90
2023-10-31T06:33:02.609Z,10.95
2023-10-31T06:35:34.639Z,11.00
2023-10-31T06:38:06.833Z,10.96
2023-10-31T06:40:39.264Z,10.90
2023-10-31T06:43:10.907Z,10.99
2023-10-31T06:45:42.838Z,11.02
2023-10-31T06:48:14.770Z,10.93
2023-10-31T06:50:47.044Z,11.06
2023-10-31T06:53:18.800Z,11.17
2023-10-31T06:55:51.362Z,11.07
2023-10-31T06:58:24.099Z,10.91
2023-10-31T07:00:56.102Z,10.96
2023-10-31T07:03:28.130Z,11.00
2023-10-31T07:06:00.456Z,11.06
2023-10-31T07:08:32.182Z,11.13
2023-10-31T07:11:04.549Z,11.32
2023-10-31T07:13:36.348Z,11.57
2023-10-31T07:16:10.116Z,11.76
2023-10-31T07:18:42.243Z,11.68
2023-10-31T07:21:14.393Z,11.70
2023-10-31T07:23:46.195Z,11.78
2023-10-31T07:26:18.839Z,11.72
2023-10-31T07:28:50.523Z,11.78
2023-10-31T07:31:22.620Z,11.82
2023-10-31T07:33:54.550Z,11.70
2023-10-31T07:36:26.783Z,11.59
2023-10-31T07:38:58.388Z,11.61
2023-10-31T07:41:30.161Z,11.68
2023-10-31T07:44:01.822Z,11.72
2023-10-31T07:46:33.664Z,11.61
2023-10-31T07:49:05.399Z,11.62
2023-10-31T07:51:37.513Z,11.76
2023-10-31T07:54:10.599Z,11.70
2023-10-31T07:56:43.559Z,11.72
2023-10-31T07:59:15.486Z,11.96
2023-10-31T08:01:52.018Z,12.03
2023-10-31T08:04:25.000Z,11.96
2023-10-31T08:06:57.049Z,11.87
2023-10-31T08:09:29.224Z,12.03
2023-10-31T08:12:01.181Z,12.21
2023-10-31T08:14:33.077Z,12.65
2023-10-31T08:17:05.363Z,12.80
2023-10-31T08:19:36.973Z,12.89
2023-10-31T08:22:09.541Z,13.00
2023-10-31T08:24:41.652Z,12.92
2023-10-31T08:27:13.869Z,12.88
2023-10-31T08:29:45.766Z,13.35
2023-10-31T08:32:17.567Z,13.85
2023-10-31T08:34:49.803Z,13.79
2023-10-31T08:37:21.752Z,13.73
2023-10-31T08:39:53.632Z,13.66
2023-10-31T08:42:25.673Z,13.69
2023-10-31T08:44:57.676Z,13.54
2023-10-31T08:47:30.271Z,13.33
2023-10-31T08:50:02.332Z,13.73
2023-10-31T08:52:34.324Z,13.98
2023-10-31T08:55:07.407Z,14.04
2023-10-31T08:57:39.291Z,14.09
2023-10-31T09:00:14.348Z,13.91
2023-10-31T09:02:46.063Z,13.75
2023-10-31T09:05:17.951Z,13.88
2023-10-31T09:07:50.330Z,14.18
2023-10-31T09:10:22.093Z,14.51
2023-10-31T09:12:54.572Z,14.82
2023-10-31T09:15:26.295Z,16.19
2023-10-31T09:17:58.434Z,17.73
2023-10-31T09:20:31.113Z,18.77
2023-10-31T09:23:02.927Z,20.53
2023-10-31T09:25:34.697Z,21.00
2023-10-31T09:28:07.356Z,20.18
2023-10-31T09:30:39.456Z,20.21
2023-10-31T09:33:11.343Z,19.84
2023-10-31T09:35:43.178Z,19.68
2023-10-31T09:38:15.241Z,18.74
2023-10-31T09:40:47.333Z,18.42
2023-10-31T09:43:19.989Z,18.18
2023-10-31T09:45:52.398Z,17.74
2023-10-31T09:48:24.380Z,16.93
2023-10-31T09:50:57.004Z,16.59
2023-10-31T09:53:29.488Z,16.47
2023-10-31T09:56:01.387Z,16.27
2023-10-31T09:58:33.791Z,16.13
2023-10-31T10:01:06.001Z,16.12
2023-10-31T10:03:38.407Z,15.99
2023-10-31T10:06:11.834Z,15.73
2023-10-31T10:08:43.586Z,15.42
2023-10-31T10:11:16.601Z,15.48
2023-10-31T10:13:48.524Z,15.48
2023-10-31T10:16:33.683Z,15.39
2023-10-31T10:19:21.669Z,15.29
2023-10-31T10:21:56.286Z,15.16
2023-10-31T10:24:28.470Z,15.16
2023-10-31T10:27:00.062Z,15.24
2023-10-31T10:29:31.933Z,15.23
2023-10-31T10:32:04.128Z,15.27
2023-10-31T10:34:36.146Z,15.43
2023-10-31T10:37:09.078Z,15.24
2023-10-31T10:39:45.260Z,15.20
2023-10-31T10:42:20.898Z,15.28
2023-10-31T10:44:56.356Z,15.18
2023-10-31T10:47:28.344Z,15.13
2023-10-31T10:50:04.067Z,15.33
2023-10-31T10:52:44.661Z,15.92
2023-10-31T10:55:23.678Z,16.04
2023-10-31T10:58:06.435Z,15.87
2023-10-31T11:00:39.067Z,15.77
2023-10-31T11:03:11.754Z,15.54
2023-10-31T11:05:44.747Z,15.55
2023-10-31T11:08:17.213Z,15.79
2023-10-31T11:10:50.333Z,16.36
2023-10-31T11:13:22.800Z,17.57
2023-10-31T11:15:59.719Z,18.51
2023-10-31T11:18:32.246Z,18.25
2023-10-31T11:21:04.194Z,17.67
2023-10-31T11:23:35.959Z,17.45
2023-10-31T11:26:11.053Z,17.39
2023-10-31T11:28:42.718Z,17.18
2023-10-31T11:31:14.716Z,17.29
2023-10-31T11:33:47.563Z,17.07
2023-10-31T11:36:21.925Z,16.71
2023-10-31T11:39:11.888Z,17.38
2023-10-31T11:41:48.097Z,17.25
2023-10-31T11:44:20.142Z,16.78
2023-10-31T11:46:54.145Z,16.93
2023-10-31T11:49:49.268Z,17.33
2023-10-31T11:52:21.738Z,17.58
2023-10-31T11:54:53.987Z,17.31
2023-10-31T11:57:32.693Z,17.00
2023-10-31T12:00:06.032Z,16.81
2023-10-31T12:02:38.097Z,16.80
2023-10-31T12:05:15.928Z,16.86
2023-10-31T12:07:48.685Z,16.93
2023-10-31T12:10:28.110Z,16.97
2023-10-31T12:13:00.874Z,16.89
2023-10-31T12:15:32.689Z,17.20
2023-10-31T12:18:04.593Z,17.20
2023-10-31T12:20:49.092Z,17.24
2023-10-31T12:23:21.319Z,17.41
2023-10-31T12:25:54.437Z,17.56
2023-10-31T12:28:29.398Z,17.55
2023-10-31T12:31:04.488Z,17.35
2023-10-31T12:33:34.778Z,16.87
2023-10-31T12:36:08.169Z,16.49
2023-10-31T12:38:40.036Z,16.13
2023-10-31T12:41:11.865Z,16.26
2023-10-31T12:43:43.843Z,16.31
2023-10-31T12:46:33.551Z,16.34
2023-10-31T12:49:05.265Z,16.40
2023-10-31T12:51:37.014Z,16.60
2023-10-31T12:54:10.029Z,16.68
2023-10-31T12:56:45.599Z,16.68
2023-10-31T12:59:21.394Z,16.57
2023-10-31T13:01:53.482Z,16.34
2023-10-31T13:04:30.104Z,16.12
2023-10-31T13:07:04.454Z,16.02
2023-10-31T13:09:38.670Z,15.92
2023-10-31T13:12:12.890Z,15.83
2023-10-31T13:14:44.633Z,15.97
2023-10-31T13:17:16.364Z,15.88
2023-10-31T13:19:48.439Z,15.66
2023-10-31T13:22:19.930Z,15.54
2023-10-31T13:24:52.056Z,15.72
2023-10-31T13:27:23.828Z,15.70
2023-10-31T13:29:55.272Z,15.48
2023-10-31T13:32:26.910Z,15.53
2023-10-31T13:34:59.146Z,15.45
2023-10-31T13:37:31.222Z,15.32
2023-10-31T13:40:03.106Z,15.34
2023-10-31T13:42:34.928Z,15.39
2023-10-31T13:45:08.061Z,15.39
2023-10-31T13:47:40.335Z,15.39
2023-10-31T13:50:13.190Z,15.55
2023-10-31T13:52:44.817Z,15.47
2023-10-31T13:55:17.789Z,15.52
2023-10-31T13:57:49.693Z,15.45
2023-10-31T14:00:21.677Z,15.32
2023-10-31T14:02:53.541Z,15.11
2023-10-31T14:05:25.446Z,15.09
2023-10-31T14:07:57.134Z,15.17
2023-10-31T14:10:29.188Z,15.28
2023-10-31T14:13:00.781Z,15.33
2023-10-31T14:15:34.083Z,15.13
2023-10-31T14:18:05.846Z,14.88
2023-10-31T14:20:38.041Z,14.85
2023-10-31T14:23:09.729Z,15.04
2023-10-31T14:25:43.480Z,15.02
2023-10-31T14:28:16.251Z,15.07
2023-10-31T14:30:47.883Z,15.20
2023-10-31T14:33:19.703Z,15.31
2023-10-31T14:35:51.569Z,15.29
2023-10-31T14:38:23.443Z,15.20
2023-10-31T14:40:55.148Z,14.94
2023-10-31T14:43:26.817Z,14.75
2023-10-31T14:45:59.265Z,14.82
2023-10-31T14:48:32.238Z,14.69
2023-10-31T14:51:05.008Z,14.66
2023-10-31T14:53:36.866Z,14.48
2023-10-31T14:56:10.146Z,14.46
2023-10-31T14:58:43.601Z,14.53
2023-10-31T15:01:15.684Z,14.51
2023-10-31T15:03:47.396Z,14.32
2023-10-31T15:06:19.079Z,14.37
2023-10-31T15:08:50.792Z,14.47
2023-10-31T15:11:22.518Z,14.58
2023-10-31T15:13:54.256Z,14.58
2023-10-31T15:16:26.435Z,14.40
2023-10-31T15:18:58.157Z,14.18
2023-10-31T15:21:29.923Z,14.13
2023-10-31T15:24:01.579Z,14.10
2023-10-31T15:26:33.788Z,14.17
2023-10-31T15:29:05.491Z,14.30
2023-10-31T15:31:37.841Z,14.16
2023-10-31T15:34:09.536Z,13.98
2023-10-31T15:36:41.285Z,13.96
2023-10-31T15:39:13.482Z,13.92
2023-10-31T15:41:45.190Z,13.85
2023-10-31T15:44:16.824Z,13.88
2023-10-31T15:46:48.580Z,13.78
2023-10-31T15:49:20.497Z,13.83
2023-10-31T15:51:52.118Z,13.85
2023-10-31T15:54:23.894Z,13.97
2023-10-31T15:56:55.723Z,13.87
2023-10-31T15:59:27.366Z,13.78
2023-10-31T16:01:59.186Z,13.92
2023-10-31T16:04:30.786Z,13.91
2023-10-31T16:07:02.700Z,13.92
2023-10-31T16:09:34.299Z,13.99
2023-10-31T16:12:08.269Z,13.82
2023-10-31T16:14:39.978Z,13.70
2023-10-31T16:17:11.617Z,13.60
2023-10-31T16:19:43.260Z,13.53
2023-10-31T16:22:14.928Z,13.43
2023-10-31T16:24:46.711Z,13.31
2023-10-31T16:27:18.794Z,13.16
2023-10-31T16:29:50.400Z,13.19
2023-10-31T16:32:22.205Z,13.18
2023-10-31T16:34:54.709Z,13.08
2023-10-31T16:37:26.482Z,12.97
2023-10-31T16:39:58.347Z,12.91
2023-10-31T16:42:33.537Z,12.79
2023-10-31T16:45:07.125Z,12.71
2023-10-31T16:47:39.600Z,12.57
2023-10-31T16:50:14.058Z,12.53
2023-10-31T16:52:46.688Z,12.40
2023-10-31T16:55:18.305Z,12.29
2023-10-31T16:57:50.005Z,12.22
2023-10-31T17:00:23.162Z,12.38
2023-10-31T17:02:55.047Z,12.57
2023-10-31T17:05:27.050Z,12.73
2023-10-31T17:07:59.117Z,12.92
2023-10-31T17:10:30.834Z,12.89
2023-10-31T17:13:02.627Z,12.81
2023-10-31T17:15:34.425Z,12.81
2023-10-31T17:18:07.348Z,12.98
2023-10-31T17:20:39.767Z,12.95
2023-10-31T17:23:11.847Z,12.71
2023-10-31T17:25:43.642Z,12.50
2023-10-31T17:28:17.223Z,12.37
2023-10-31T17:30:49.276Z,12.30
2023-10-31T17:33:21.155Z,12.28
2023-10-31T17:35:52.969Z,12.24
2023-10-31T17:38:25.095Z,12.14
2023-10-31T17:40:57.659Z,11.97
2023-10-31T17:43:30.020Z,11.85
2023-10-31T17:46:01.789Z,11.82
2023-10-31T17:48:33.730Z,11.78
2023-10-31T17:51:06.230Z,11.76
2023-10-31T17:53:40.398Z,11.62
2023-10-31T17:56:12.363Z,11.59
2023-10-31T17:58:44.228Z,11.57
2023-10-31T18:01:15.926Z,11.53
2023-10-31T18:03:47.704Z,11.52
2023-10-31T18:06:19.518Z,11.49
2023-10-31T18:08:51.399Z,11.45
2023-10-31T18:11:23.137Z,11.43
2023-10-31T18:13:54.980Z,11.45
2023-10-31T18:16:26.570Z,11.60
2023-10-31T18:18:58.427Z,11.58
2023-10-31T18:21:30.962Z,11.50
2023-10-31T18:24:03.628Z,11.44
2023-10-31T18:26:35.290Z,11.36
2023-10-31T18:29:07.663Z,11.30
2023-10-31T18:31:40.715Z,11.23
2023-10-31T18:34:12.626Z,11.22
2023-10-31T18:36:44.222Z,11.22
2023-10-31T18:39:16.018Z,11.27
2023-10-31T18:41:59.654Z,11.40
2023-10-31T18:44:46.597Z,11.40
2023-10-31T18:47:24.745Z,11.41
2023-10-31T18:49:57.980Z,11.47
2023-10-31T18:52:29.906Z,11.46
2023-10-31T18:55:01.964Z,11.56
2023-10-31T18:57:33.970Z,11.63
2023-10-31T19:00:08.656Z,11.63
2023-10-31T19:02:40.712Z,11.50
2023-10-31T19:05:14.270Z,11.52
2023-10-31T19:07:47.243Z,11.53
2023-10-31T19:10:20.010Z,11.47
2023-10-31T19:12:51.613Z,11.47
2023-10-31T19:15:23.916Z,11.58
2023-10-31T19:17:55.772Z,11.48
2023-10-31T19:20:28.746Z,11.33
2023-10-31T19:23:01.899Z,11.32
2023-10-31T19:25:33.715Z,11.38
2023-10-31T19:28:05.930Z,11.38
2023-10-31T19:30:40.548Z,11.32
2023-10-31T19:33:12.247Z,11.37
2023-10-31T19:35:43.985Z,11.35
2023-10-31T19:38:16.137Z,11.22
2023-10-31T19:40:48.315Z,11.21
2023-10-31T19:43:20.043Z,11.32
2023-10-31T19:45:51.956Z,11.34
2023-10-31T19:48:23.637Z,11.35
2023-10-31T19:50:55.678Z,11.32
2023-10-31T19:53:27.407Z,11.32
2023-10-31T19:55:59.298Z,11.27
2023-10-31T19:58:30.893Z,11.27
2023-10-31T20:01:02.679Z,11.27
2023-10-31T20:03:34.419Z,11.35
2023-10-31T20:06:08.057Z,11.34
2023-10-31T20:08:39.913Z,11.32
2023-10-31T20:11:12.769Z,11.33
2023-10-31T20:13:44.970Z,11.52
2023-10-31T20:16:17.338Z,11.63
2023-10-31T20:18:48.888Z,11.52
2023-10-31T20:21:21.292Z,11.56
2023-10-31T20:23:53.216Z,11.50
2023-10-31T20:26:25.067Z,11.39
2023-10-31T20:28:56.823Z,11.36
2023-10-31T20:31:28.596Z,11.45
2023-10-31T20:34:00.252Z,11.53
2023-10-31T20:36:31.955Z,11.50
2023-10-31T20:39:03.840Z,11.40
2023-10-31T20:41:37.061Z,11.41
2023-10-31T20:44:09.026Z,11.40
2023-10-31T20:46:41.561Z,11.35
2023-10-31T20:49:13.468Z,11.32
2023-10-31T20:51:46.263Z,11.39
2023-10-31T20:54:17.942Z,11.35
2023-10-31T20:56:49.676Z,11.30
2023-10-31T20:59:21.371Z,11.22
2023-10-31T21:01:53.231Z,11.32
2023-10-31T21:04:26.282Z,11.37
2023-10-31T21:07:00.459Z,11.48
2023-10-31T21:09:32.055Z,11.44
2023-10-31T21:12:04.514Z,11.40
2023-10-31T21:14:36.498Z,11.40
2023-10-31T21:17:08.647Z,11.46
2023-10-31T21:19:40.516Z,11.31
2023-10-31T21:22:12.630Z,11.34
2023-10-31T21:24:44.365Z,11.39
2023-10-31T21:27:16.489Z,11.38
2023-10-31T21:29:48.157Z,11.29
2023-10-31T21:32:19.915Z,11.31
2023-10-31T21:34:52.046Z,11.31
2023-10-31T21:37:24.515Z,11.26
2023-10-31T21:39:56.211Z,11.29
2023-10-31T21:42:28.148Z,11.36
2023-10-31T21:45:01.503Z,11.45
2023-10-31T21:47:33.282Z,11.50
2023-10-31T21:50:05.778Z,11.47
2023-10-31T21:52:37.831Z,11.51
2023-10-31T21:55:11.788Z,11.54
2023-10-31T21:57:43.637Z,11.55
2023-10-31T22:00:17.773Z,11.44
2023-10-31T22:02:49.830Z,11.52
2023-10-31T22:05:22.180Z,11.58
2023-10-31T22:07:53.992Z,11.58
2023-10-31T22:10:25.809Z,11.51
2023-10-31T22:12:57.636Z,11.55
2023-10-31T22:15:29.378Z,11.53
2023-10-31T22:18:01.263Z,11.60
2023-10-31T22:20:33.239Z,11.64
2023-10-31T22:23:05.516Z,11.54
2023-10-31T22:25:37.160Z,11.53
2023-10-31T22:28:09.037Z,11.49
2023-10-31T22:30:40.603Z,11.45
2023-10-31T22:33:13.112Z,11.40
2023-10-31T22:35:44.899Z,11.39
2023-10-31T22:38:16.586Z,11.53
2023-10-31T22:40:48.511Z,11.60
2023-10-31T22:43:20.703Z,11.51
2023-10-31T22:45:52.375Z,11.47
2023-10-31T22:48:24.396Z,11.55
2023-10-31T22:50:55.967Z,11.62
2023-10-31T22:53:31.309Z,11.68
2023-10-31T22:56:03.993Z,11.52
2023-10-31T22:58:36.083Z,11.50
2023-10-31T23:01:09.346Z,11.46
2023-10-31T23:03:41.159Z,11.34
2023-10-31T23:06:12.989Z,11.13
2023-10-31T23:08:44.816Z,11.13
2023-10-31T23:11:16.627Z,11.16
2023-10-31T23:13:48.614Z,11.08
2023-10-31T23:16:20.491Z,11.08
2023-10-31T23:18:52.287Z,11.09
2023-10-31T23:21:24.365Z,11.18
2023-10-31T23:23:56.248Z,11.10
2023-10-31T23:26:28.106Z,11.18
2023-10-31T23:29:01.020Z,11.20
2023-10-31T23:31:32.897Z,11.30
2023-10-31T23:34:05.243Z,11.24
2023-10-31T23:36:36.871Z,11.29
2023-10-31T23:39:08.923Z,11.41
2023-10-31T23:41:41.212Z,11.57
2023-10-31T23:44:13.093Z,11.65
2023-10-31T23:46:44.822Z,11.51
2023-10-31T23:49:16.314Z,11.55
2023-10-31T23:51:48.114Z,11.66
2023-10-31T23:54:19.966Z,11.57
2023-10-31T23:56:51.753Z,11.46
2023-10-31T23:59:23.933Z,11.52
